createdAt,value
2022-11-25T00:00:50.375Z,86.12
2022-11-25T00:03:34.036Z,84.89
2022-11-25T00:06:12.829Z,85.84
2022-11-25T00:08:41.529Z,85.09
2022-11-25T00:11:15.435Z,85.89
2022-11-25T00:13:48.243Z,85.90
2022-11-25T00:16:21.511Z,86.03
2022-11-25T00:18:55.915Z,87.09
2022-11-25T00:21:29.172Z,87.21
2022-11-25T00:23:58.710Z,86.42
2022-11-25T00:26:28.608Z,86.46
2022-11-25T00:28:58.218Z,86.20
2022-11-25T00:31:28.716Z,87.03
2022-11-25T00:33:56.629Z,86.75
2022-11-25T00:36:25.335Z,86.73
2022-11-25T00:39:01.412Z,87.89
2022-11-25T00:41:47.723Z,85.32
2022-11-25T00:44:38.309Z,86.06
2022-11-25T00:47:12.172Z,86.93
2022-11-25T00:49:40.953Z,87.92
2022-11-25T00:52:08.904Z,87.99
2022-11-25T00:54:36.387Z,87.17
2022-11-25T00:57:03.840Z,88.10
2022-11-25T00:59:31.495Z,87.66
2022-11-25T01:01:58.745Z,89.18
2022-11-25T01:04:26.011Z,88.13
2022-11-25T01:06:54.419Z,88.18
2022-11-25T01:09:21.362Z,87.84
2022-11-25T01:11:51.340Z,87.17
2022-11-25T01:14:19.458Z,87.87
2022-11-25T01:16:46.802Z,88.68
2022-11-25T01:19:14.321Z,87.19
2022-11-25T01:21:41.670Z,86.04
2022-11-25T01:24:09.260Z,87.01
2022-11-25T01:26:36.522Z,87.19
2022-11-25T01:29:12.636Z,86.96
2022-11-25T01:31:42.581Z,85.51
2022-11-25T01:34:25.362Z,85.33
2022-11-25T01:36:58.302Z,85.80
2022-11-25T01:39:33.162Z,85.66
2022-11-25T01:42:07.119Z,84.53
2022-11-25T01:44:39.542Z,84.68
2022-11-25T01:47:24.706Z,85.32
2022-11-25T01:50:02.944Z,84.80
2022-11-25T01:52:45.267Z,86.26
2022-11-25T01:55:30.132Z,86.10
2022-11-25T01:58:04.096Z,85.17
2022-11-25T02:00:31.755Z,84.31
2022-11-25T02:03:03.194Z,84.52
2022-11-25T02:06:02.439Z,85.47
2022-11-25T02:08:33.653Z,84.80
2022-11-25T02:11:05.289Z,84.00
2022-11-25T02:13:34.350Z,84.79
2022-11-25T02:16:03.659Z,85.84
2022-11-25T02:18:33.369Z,85.51
2022-11-25T02:21:03.502Z,85.90
2022-11-25T02:23:45.810Z,85.16
2022-11-25T02:26:24.049Z,86.72
2022-11-25T02:28:52.086Z,86.72
2022-11-25T02:31:23.111Z,86.82
2022-11-25T02:33:51.574Z,88.03
2022-11-25T02:36:30.266Z,88.88
2022-11-25T02:39:10.802Z,87.07
2022-11-25T02:41:55.396Z,90.49
2022-11-25T02:44:22.862Z,89.90
2022-11-25T02:46:55.974Z,90.54
2022-11-25T02:49:23.324Z,91.65
2022-11-25T02:51:51.274Z,91.86
2022-11-25T02:54:21.685Z,92.59
2022-11-25T02:56:51.005Z,92.58
2022-11-25T02:59:21.115Z,91.80
2022-11-25T03:01:48.775Z,91.01
2022-11-25T03:04:19.352Z,89.73
2022-11-25T03:06:49.608Z,90.27
2022-11-25T03:09:19.443Z,89.79
2022-11-25T03:12:08.605Z,90.14
2022-11-25T03:14:38.737Z,88.99
2022-11-25T03:17:08.886Z,88.76
2022-11-25T03:19:43.168Z,89.30
2022-11-25T03:22:13.584Z,89.12
2022-11-25T03:24:48.132Z,89.85
2022-11-25T03:27:15.434Z,90.05
2022-11-25T03:29:42.556Z,90.16
2022-11-25T03:32:10.392Z,90.37
2022-11-25T03:34:43.596Z,90.64
2022-11-25T03:37:11.158Z,89.87
2022-11-25T03:39:38.191Z,90.58
2022-11-25T03:42:05.323Z,88.78
2022-11-25T03:44:32.514Z,89.13
2022-11-25T03:46:59.888Z,89.14
2022-11-25T03:49:29.796Z,90.32
2022-11-25T03:51:57.318Z,88.58
2022-11-25T03:54:25.232Z,88.40
2022-11-25T03:56:52.298Z,87.97
2022-11-25T03:59:19.546Z,88.20
2022-11-25T04:01:46.784Z,88.89
2022-11-25T04:04:14.535Z,89.05
2022-11-25T04:06:51.922Z,89.00
2022-11-25T04:09:37.647Z,89.18
2022-11-25T04:13:11.909Z,89.25
2022-11-25T04:16:08.718Z,88.55
2022-11-25T04:18:56.736Z,87.93
2022-11-25T04:24:35.220Z,87.80
2022-11-25T04:27:29.702Z,88.14
2022-11-25T04:33:39.068Z,87.11
2022-11-25T04:39:36.846Z,85.66
2022-11-25T04:42:28.863Z,86.02
2022-11-25T04:45:28.783Z,85.52
2022-11-25T04:48:04.277Z,84.54
2022-11-25T04:50:34.704Z,84.20
2022-11-25T04:53:01.749Z,83.18
2022-11-25T04:56:21.356Z,83.96
2022-11-25T04:59:26.074Z,83.27
2022-11-25T05:02:27.385Z,83.72
2022-11-25T05:04:56.810Z,83.13
2022-11-25T05:07:25.717Z,84.57
2022-11-25T05:09:56.208Z,84.20
2022-11-25T05:12:48.437Z,82.90
2022-11-25T05:15:52.744Z,83.27
2022-11-25T05:18:22.705Z,84.50
2022-11-25T05:20:49.769Z,85.01
2022-11-25T05:23:16.794Z,84.37
2022-11-25T05:25:43.869Z,84.56
2022-11-25T05:28:20.668Z,83.52
2022-11-25T05:30:47.836Z,83.64
2022-11-25T05:33:15.156Z,83.80
2022-11-25T05:35:42.173Z,84.03
2022-11-25T05:38:09.168Z,82.99
2022-11-25T05:40:36.310Z,84.13
2022-11-25T05:43:04.078Z,83.43
2022-11-25T05:45:31.250Z,83.54
2022-11-25T05:47:58.446Z,84.07
2022-11-25T05:50:28.800Z,83.26
2022-11-25T05:52:55.834Z,83.73
2022-11-25T05:55:22.930Z,82.62
2022-11-25T05:57:50.461Z,83.40
2022-11-25T06:00:20.980Z,83.81
2022-11-25T06:02:51.361Z,83.92
2022-11-25T06:05:20.036Z,83.67
2022-11-25T06:07:47.416Z,82.94
2022-11-25T06:10:15.004Z,83.11
2022-11-25T06:12:41.919Z,81.53
2022-11-25T06:15:09.634Z,82.54
2022-11-25T06:17:36.783Z,82.43
2022-11-25T06:20:07.993Z,82.56
2022-11-25T06:22:35.015Z,81.62
2022-11-25T06:25:03.997Z,82.86
2022-11-25T06:27:50.146Z,83.61
2022-11-25T06:30:19.316Z,82.83
2022-11-25T06:32:46.545Z,82.42
2022-11-25T06:35:13.610Z,81.89
2022-11-25T06:37:40.668Z,82.10
2022-11-25T06:40:08.480Z,82.15
2022-11-25T06:42:35.636Z,81.76
2022-11-25T06:45:02.931Z,80.96
2022-11-25T06:47:29.971Z,80.71
2022-11-25T06:49:57.024Z,82.29
2022-11-25T06:52:24.048Z,82.21
2022-11-25T06:54:51.804Z,82.31
2022-11-25T06:57:20.081Z,82.67
2022-11-25T06:59:47.147Z,82.04
2022-11-25T07:02:15.162Z,82.19
2022-11-25T07:04:42.022Z,82.80
2022-11-25T07:07:09.616Z,82.86
2022-11-25T07:09:37.126Z,82.52
2022-11-25T07:12:06.069Z,83.09
2022-11-25T07:14:33.011Z,82.78
2022-11-25T07:17:00.035Z,83.03
2022-11-25T07:19:26.940Z,82.55
2022-11-25T07:21:54.033Z,82.36
2022-11-25T07:24:20.916Z,81.08
2022-11-25T07:26:47.791Z,81.84
2022-11-25T07:29:51.638Z,81.45
2022-11-25T07:32:10.051Z,82.25
2022-11-25T07:34:37.599Z,82.08
2022-11-25T07:37:04.485Z,82.10
2022-11-25T07:39:31.500Z,82.09
2022-11-25T07:41:58.380Z,81.94
2022-11-25T07:44:25.494Z,81.54
2022-11-25T07:46:52.514Z,81.54
2022-11-25T07:49:21.968Z,81.18
2022-11-25T07:51:54.733Z,81.15
2022-11-25T07:54:23.016Z,81.48
2022-11-25T07:56:51.061Z,81.83
2022-11-25T07:59:18.973Z,81.86
2022-11-25T08:01:46.208Z,81.34
2022-11-25T08:04:19.776Z,80.53
2022-11-25T08:06:49.753Z,81.65
2022-11-25T08:09:19.892Z,81.98
2022-11-25T08:11:48.992Z,81.54
2022-11-25T08:14:16.851Z,80.73
2022-11-25T08:16:43.954Z,80.12
2022-11-25T08:19:14.473Z,81.49
2022-11-25T08:21:41.900Z,80.02
2022-11-25T08:24:16.590Z,79.92
2022-11-25T08:26:44.016Z,79.46
2022-11-25T08:29:16.966Z,78.84
2022-11-25T08:31:44.337Z,77.83
2022-11-25T08:34:19.287Z,78.78
2022-11-25T08:36:48.497Z,79.21
2022-11-25T08:39:51.363Z,77.85
2022-11-25T08:42:04.838Z,76.82
2022-11-25T08:44:32.101Z,76.74
2022-11-25T08:46:59.085Z,77.43
2022-11-25T08:49:27.290Z,76.04
2022-11-25T08:51:54.201Z,75.99
2022-11-25T08:54:21.145Z,76.68
2022-11-25T08:56:48.226Z,76.72
2022-11-25T08:59:15.396Z,75.62
2022-11-25T09:01:42.409Z,75.76
2022-11-25T09:04:09.459Z,75.57
2022-11-25T09:06:36.330Z,74.88
2022-11-25T09:09:06.349Z,74.45
2022-11-25T09:11:33.516Z,73.03
2022-11-25T09:14:02.936Z,74.00
2022-11-25T09:16:30.283Z,73.36
2022-11-25T09:18:57.484Z,73.82
2022-11-25T09:21:25.427Z,73.74
2022-11-25T09:23:54.161Z,73.71
2022-11-25T09:26:27.076Z,73.20
2022-11-25T09:28:54.952Z,73.07
2022-11-25T09:31:23.437Z,73.53
2022-11-25T09:33:50.881Z,74.12
2022-11-25T09:36:19.197Z,74.62
2022-11-25T09:38:46.595Z,72.62
2022-11-25T09:41:47.723Z,73.08
2022-11-25T09:44:57.869Z,73.20
2022-11-25T09:47:54.286Z,71.55
2022-11-25T09:50:45.223Z,71.12
2022-11-25T09:53:35.838Z,70.68
2022-11-25T09:56:04.965Z,71.26
2022-11-25T09:58:42.050Z,70.78
2022-11-25T10:01:17.515Z,69.73
2022-11-25T10:03:50.503Z,69.70
2022-11-25T10:06:34.887Z,69.20
2022-11-25T10:09:22.861Z,68.28
2022-11-25T10:12:05.702Z,69.31
2022-11-25T10:14:42.539Z,68.49
2022-11-25T10:17:42.441Z,68.71
2022-11-25T10:20:18.592Z,68.40
2022-11-25T10:22:59.690Z,68.56
2022-11-25T10:25:40.085Z,69.62
2022-11-25T10:28:20.370Z,68.22
2022-11-25T10:30:53.410Z,69.25
2022-11-25T10:33:25.150Z,68.70
2022-11-25T10:36:06.932Z,68.50
2022-11-25T10:38:44.434Z,69.14
2022-11-25T10:41:19.325Z,68.27
2022-11-25T10:43:48.086Z,69.48
2022-11-25T10:46:57.069Z,68.72
2022-11-25T10:49:30.349Z,67.96
2022-11-25T10:52:00.120Z,67.56
2022-11-25T10:54:29.182Z,66.27
2022-11-25T10:57:01.888Z,66.47
2022-11-25T10:59:37.776Z,66.13
2022-11-25T11:02:23.913Z,66.52
2022-11-25T11:05:03.322Z,64.92
2022-11-25T11:07:34.118Z,64.48
2022-11-25T11:10:23.525Z,63.08
2022-11-25T11:13:04.058Z,62.57
2022-11-25T11:15:47.323Z,62.95
2022-11-25T11:18:39.047Z,61.45
2022-11-25T11:21:08.809Z,61.56
2022-11-25T11:23:51.523Z,61.92
2022-11-25T11:26:27.768Z,61.35
2022-11-25T11:29:08.430Z,62.28
2022-11-25T11:31:41.228Z,62.28
2022-11-25T11:34:42.168Z,62.06
2022-11-25T11:37:27.756Z,61.73
2022-11-25T11:40:16.410Z,61.00
2022-11-25T11:43:02.572Z,61.09
2022-11-25T11:45:58.034Z,59.98
2022-11-25T11:48:53.241Z,60.14
2022-11-25T11:51:40.691Z,58.86
2022-11-25T11:54:16.435Z,59.20
2022-11-25T11:57:03.570Z,59.40
2022-11-25T11:59:51.724Z,59.23
2022-11-25T12:02:43.511Z,58.25
2022-11-25T12:05:10.385Z,57.49
2022-11-25T12:08:05.850Z,58.82
2022-11-25T12:10:43.735Z,58.96
2022-11-25T12:13:25.371Z,59.40
2022-11-25T12:16:01.168Z,59.73
2022-11-25T12:18:55.421Z,59.17
2022-11-25T12:21:42.247Z,59.94
2022-11-25T12:24:47.948Z,60.28
2022-11-25T12:27:23.633Z,60.45
2022-11-25T12:30:16.917Z,60.74
2022-11-25T12:33:06.641Z,60.35
2022-11-25T12:36:03.414Z,60.67
2022-11-25T12:38:56.307Z,60.88
2022-11-25T12:44:42.653Z,60.55
2022-11-25T12:47:12.975Z,59.97
2022-11-25T12:49:47.451Z,59.86
2022-11-25T12:52:51.475Z,60.29
2022-11-25T12:55:30.060Z,59.83
2022-11-25T12:58:36.352Z,59.70
2022-11-25T13:01:09.224Z,59.05
2022-11-25T13:04:01.278Z,59.05
2022-11-25T13:06:59.225Z,59.25
2022-11-25T13:09:44.847Z,59.54
2022-11-25T13:12:30.804Z,59.25
2022-11-25T13:15:13.536Z,59.77
2022-11-25T13:17:44.022Z,59.99
2022-11-25T13:20:29.479Z,60.43
2022-11-25T13:23:05.649Z,61.86
2022-11-25T13:25:33.712Z,61.34
2022-11-25T13:28:02.091Z,61.52
2022-11-25T13:30:34.833Z,62.49
2022-11-25T13:33:13.787Z,62.56
2022-11-25T13:35:43.469Z,63.48
2022-11-25T13:38:48.046Z,63.17
2022-11-25T13:41:29.196Z,64.43
2022-11-25T13:44:16.375Z,64.91
2022-11-25T13:46:49.853Z,65.75
2022-11-25T13:49:52.567Z,66.62
2022-11-25T13:52:19.413Z,67.29
2022-11-25T13:54:53.951Z,68.19
2022-11-25T13:57:25.837Z,68.90
2022-11-25T13:59:57.118Z,70.20
2022-11-25T14:02:30.692Z,70.12
2022-11-25T14:05:07.303Z,69.89
2022-11-25T14:07:37.439Z,70.11
2022-11-25T14:10:26.922Z,69.69
2022-11-25T14:13:09.921Z,69.91
2022-11-25T14:15:55.663Z,69.85
2022-11-25T14:22:11.299Z,71.20
2022-11-25T14:25:19.321Z,70.67
2022-11-25T14:28:40.310Z,71.09
2022-11-25T14:32:35.577Z,71.57
2022-11-25T14:35:34.229Z,72.16
2022-11-25T14:38:16.855Z,72.08
2022-11-25T14:40:54.402Z,72.32
2022-11-25T14:43:29.264Z,71.93
2022-11-25T14:46:18.445Z,72.40
2022-11-25T14:48:52.975Z,72.91
2022-11-25T14:51:29.319Z,73.26
2022-11-25T14:54:02.923Z,73.09
2022-11-25T14:56:33.515Z,72.84
2022-11-25T14:59:05.954Z,73.15
2022-11-25T15:02:04.556Z,72.01
2022-11-25T15:04:34.664Z,72.55
2022-11-25T15:07:06.187Z,72.25
2022-11-25T15:09:39.961Z,72.72
2022-11-25T15:12:22.174Z,72.71
2022-11-25T15:14:53.298Z,72.55
2022-11-25T15:17:33.305Z,72.93
2022-11-25T15:20:12.796Z,73.22
2022-11-25T15:22:40.079Z,74.08
2022-11-25T15:25:14.346Z,74.07
2022-11-25T15:27:46.755Z,75.11
2022-11-25T15:30:23.812Z,74.70
2022-11-25T15:32:52.574Z,74.44
2022-11-25T15:35:22.247Z,75.21
2022-11-25T15:37:50.238Z,75.40
2022-11-25T15:40:49.562Z,75.47
2022-11-25T15:43:31.738Z,77.38
2022-11-25T15:46:26.182Z,76.87
2022-11-25T15:49:23.590Z,77.64
2022-11-25T15:52:15.399Z,78.41
2022-11-25T15:54:55.351Z,77.80
2022-11-25T15:57:24.117Z,77.63
2022-11-25T15:59:55.305Z,78.82
2022-11-25T16:02:40.607Z,78.87
2022-11-25T16:05:56.146Z,78.92
2022-11-25T16:08:35.647Z,79.52
2022-11-25T16:11:21.554Z,81.09
2022-11-25T16:13:51.595Z,80.83
2022-11-25T16:16:32.750Z,80.73
2022-11-25T16:19:03.082Z,81.91
2022-11-25T16:21:45.182Z,83.39
2022-11-25T16:24:24.300Z,83.72
2022-11-25T16:27:07.082Z,83.82
2022-11-25T16:29:41.135Z,84.99
2022-11-25T16:32:17.236Z,85.27
2022-11-25T16:34:44.734Z,85.72
2022-11-25T16:37:12.483Z,86.14
2022-11-25T16:39:42.224Z,86.32
2022-11-25T16:42:17.902Z,86.92
2022-11-25T16:44:49.202Z,86.68
2022-11-25T16:47:16.964Z,86.91
2022-11-25T16:49:44.469Z,86.79
2022-11-25T16:52:11.430Z,87.03
2022-11-25T16:54:39.527Z,86.62
2022-11-25T16:59:54.569Z,88.57
2022-11-25T17:02:40.104Z,88.86
2022-11-25T17:05:23.675Z,88.79
2022-11-25T17:07:58.803Z,88.09
2022-11-25T17:10:40.594Z,88.96
2022-11-25T17:13:26.567Z,89.45
2022-11-25T17:15:55.269Z,89.63
2022-11-25T17:18:26.916Z,89.07
2022-11-25T17:20:54.116Z,89.44
2022-11-25T17:23:22.725Z,89.08
2022-11-25T17:25:51.316Z,88.98
2022-11-25T17:28:22.223Z,90.08
2022-11-25T17:31:21.173Z,90.06
2022-11-25T17:33:57.461Z,91.16
2022-11-25T17:36:25.346Z,90.60
2022-11-25T17:38:53.580Z,89.93
2022-11-25T17:41:27.472Z,90.95
2022-11-25T17:43:56.559Z,91.32
2022-11-25T17:46:28.860Z,90.30
2022-11-25T17:48:56.057Z,90.96
2022-11-25T17:51:23.274Z,91.08
2022-11-25T17:53:50.503Z,90.47
2022-11-25T17:56:26.362Z,91.32
2022-11-25T17:58:54.139Z,91.27
2022-11-25T18:01:21.846Z,91.11
2022-11-25T18:03:52.598Z,90.90
2022-11-25T18:06:20.149Z,92.49
2022-11-25T18:08:47.826Z,91.51
2022-11-25T18:11:34.062Z,91.62
2022-11-25T18:14:01.422Z,92.40
2022-11-25T18:16:29.857Z,91.36
2022-11-25T18:18:58.639Z,92.26
2022-11-25T18:21:26.784Z,93.13
2022-11-25T18:23:59.556Z,92.96
2022-11-25T18:27:01.254Z,91.72
2022-11-25T18:29:28.434Z,93.09
2022-11-25T18:31:57.102Z,93.26
2022-11-25T18:34:25.396Z,92.23
2022-11-25T18:36:53.417Z,91.29
2022-11-25T18:39:21.124Z,93.16
2022-11-25T18:41:50.116Z,90.67
2022-11-25T18:44:26.242Z,89.65
2022-11-25T18:46:54.894Z,90.69
2022-11-25T18:49:24.409Z,91.30
2022-11-25T18:51:52.716Z,91.54
2022-11-25T18:54:20.020Z,91.83
2022-11-25T18:56:51.890Z,90.26
2022-11-25T18:59:28.698Z,89.21
2022-11-25T19:01:56.354Z,89.00
2022-11-25T19:04:23.692Z,88.99
2022-11-25T19:06:55.020Z,89.83
2022-11-25T19:09:22.799Z,88.10
2022-11-25T19:11:52.855Z,87.90
2022-11-25T19:14:19.800Z,87.85
2022-11-25T19:16:47.014Z,87.82
2022-11-25T19:19:17.591Z,88.65
2022-11-25T19:21:44.740Z,87.82
2022-11-25T19:24:21.214Z,89.63
2022-11-25T19:26:56.859Z,89.20
2022-11-25T19:29:31.109Z,87.73
2022-11-25T19:32:02.554Z,88.81
2022-11-25T19:34:35.738Z,89.28
2022-11-25T19:37:03.564Z,87.33
2022-11-25T19:39:35.582Z,85.93
2022-11-25T19:42:10.014Z,84.78
2022-11-25T19:44:37.481Z,85.62
2022-11-25T19:47:15.108Z,83.51
2022-11-25T19:49:43.481Z,85.35
2022-11-25T19:52:22.564Z,85.64
2022-11-25T19:54:50.342Z,85.33
2022-11-25T19:57:20.684Z,84.98
2022-11-25T20:00:00.123Z,83.95
2022-11-25T20:02:34.471Z,85.28
2022-11-25T20:05:05.098Z,83.29
2022-11-25T20:07:32.851Z,83.71
2022-11-25T20:10:22.436Z,83.21
2022-11-25T20:12:50.434Z,84.45
2022-11-25T20:15:17.318Z,83.15
2022-11-25T20:17:51.088Z,84.08
2022-11-25T20:20:38.616Z,83.69
2022-11-25T20:23:16.987Z,83.97
2022-11-25T20:25:46.921Z,84.17
2022-11-25T20:28:20.045Z,83.67
2022-11-25T20:30:48.295Z,85.32
2022-11-25T20:33:21.085Z,84.50
2022-11-25T20:35:53.665Z,85.43
2022-11-25T20:38:30.725Z,84.18
2022-11-25T20:41:03.589Z,84.14
2022-11-25T20:43:33.608Z,84.30
2022-11-25T20:46:02.691Z,84.43
2022-11-25T20:48:35.667Z,84.05
2022-11-25T20:51:04.353Z,85.65
2022-11-25T20:53:32.797Z,84.32
2022-11-25T20:56:00.728Z,84.53
2022-11-25T20:58:31.029Z,83.89
2022-11-25T21:00:59.688Z,84.02
2022-11-25T21:03:27.652Z,84.36
2022-11-25T21:05:56.025Z,84.42
2022-11-25T21:08:31.484Z,82.99
2022-11-25T21:10:59.509Z,84.54
2022-11-25T21:13:31.248Z,84.32
2022-11-25T21:15:58.573Z,84.43
2022-11-25T21:18:27.243Z,83.51
2022-11-25T21:20:56.380Z,84.32
2022-11-25T21:23:28.063Z,84.18
2022-11-25T21:26:02.973Z,83.33
2022-11-25T21:28:34.561Z,82.82
2022-11-25T21:31:09.841Z,83.50
2022-11-25T21:33:38.402Z,83.35
2022-11-25T21:36:06.244Z,82.95
2022-11-25T21:38:33.657Z,83.29
2022-11-25T21:41:01.203Z,83.43
2022-11-25T21:43:39.819Z,84.14
2022-11-25T21:46:11.130Z,83.30
2022-11-25T21:48:40.219Z,83.33
2022-11-25T21:51:09.099Z,84.03
2022-11-25T21:53:37.563Z,83.93
2022-11-25T21:56:14.683Z,83.27
2022-11-25T21:58:42.169Z,83.50
2022-11-25T22:01:13.195Z,82.47
2022-11-25T22:03:40.904Z,82.96
2022-11-25T22:06:30.957Z,81.90
2022-11-25T22:09:33.789Z,83.55
2022-11-25T22:12:11.806Z,82.03
2022-11-25T22:17:38.892Z,83.21
2022-11-25T22:20:24.712Z,83.83
2022-11-25T22:22:55.464Z,83.83
2022-11-25T22:25:25.249Z,84.10
2022-11-25T22:27:52.888Z,85.10
2022-11-25T22:30:22.869Z,84.05
2022-11-25T22:33:01.389Z,83.91
2022-11-25T22:35:28.947Z,84.01
2022-11-25T22:37:56.045Z,84.26
2022-11-25T22:40:27.494Z,85.32
2022-11-25T22:42:56.561Z,83.19
2022-11-25T22:45:37.516Z,84.45
2022-11-25T22:48:07.060Z,84.22
2022-11-25T22:50:38.475Z,85.62
2022-11-25T22:53:13.843Z,85.75
2022-11-25T22:55:41.742Z,86.51
2022-11-25T22:58:10.531Z,87.19
2022-11-25T23:00:43.123Z,86.74
2022-11-25T23:03:29.610Z,87.72
2022-11-25T23:05:57.393Z,88.02
2022-11-25T23:08:29.051Z,88.38
2022-11-25T23:10:57.751Z,89.56
2022-11-25T23:13:25.582Z,90.26
2022-11-25T23:15:58.574Z,90.49
2022-11-25T23:18:35.287Z,91.24
2022-11-25T23:21:15.742Z,91.49
2022-11-25T23:23:45.792Z,93.39
2022-11-25T23:26:14.168Z,91.72
2022-11-25T23:28:50.748Z,91.90
2022-11-25T23:31:21.638Z,93.65
2022-11-25T23:33:50.881Z,92.20
2022-11-25T23:36:24.731Z,93.59
2022-11-25T23:38:58.679Z,92.30
2022-11-25T23:41:31.664Z,92.19
2022-11-25T23:44:06.183Z,93.67
2022-11-25T23:46:37.949Z,93.02
2022-11-25T23:49:10.142Z,94.31
2022-11-25T23:51:37.299Z,93.92
2022-11-25T23:54:04.441Z,94.81
2022-11-25T23:56:31.838Z,95.86
2022-11-25T23:59:01.978Z,96.33
